sensor_id;sensor_type;location;lat;lon;timestamp;temperature;humidity
24250;DHT22;12379;49.820;8.648;2023-08-06T00:00:09;16.90;99.90
24250;DHT22;12379;49.820;8.648;2023-08-06T00:02:35;16.90;99.90
24250;DHT22;12379;49.820;8.648;2023-08-06T00:08:23;16.90;99.90
24250;DHT22;12379;49.820;8.648;2023-08-06T00:10:48;16.90;99.90
24250;DHT22;12379;49.820;8.648;2023-08-06T00:13:14;16.80;99.90
24250;DHT22;12379;49.820;8.648;2023-08-06T00:15:40;16.80;99.90
24250;DHT22;12379;49.820;8.648;2023-08-06T00:18:05;16.80;99.90
24250;DHT22;12379;49.820;8.648;2023-08-06T00:20:31;16.80;99.90
24250;DHT22;12379;49.820;8.648;2023-08-06T00:22:56;16.80;99.90
24250;DHT22;12379;49.820;8.648;2023-08-06T00:25:22;16.80;99.90
24250;DHT22;12379;49.820;8.648;2023-08-06T00:27:47;16.80;99.90
24250;DHT22;12379;49.820;8.648;2023-08-06T00:30:13;17.00;99.90
24250;DHT22;12379;49.820;8.648;2023-08-06T00:32:38;17.10;99.90
24250;DHT22;12379;49.820;8.648;2023-08-06T00:35:04;16.90;99.90
24250;DHT22;12379;49.820;8.648;2023-08-06T00:37:31;17.00;99.90
24250;DHT22;12379;49.820;8.648;2023-08-06T00:39:58;17.00;99.90
24250;DHT22;12379;49.820;8.648;2023-08-06T00:42:23;17.00;99.90
24250;DHT22;12379;49.820;8.648;2023-08-06T00:44:49;17.00;99.90
24250;DHT22;12379;49.820;8.648;2023-08-06T00:47:15;17.00;99.90
24250;DHT22;12379;49.820;8.648;2023-08-06T00:49:41;17.00;99.90
24250;DHT22;12379;49.820;8.648;2023-08-06T00:52:07;17.10;99.90
24250;DHT22;12379;49.820;8.648;2023-08-06T00:54:33;17.00;99.90
24250;DHT22;12379;49.820;8.648;2023-08-06T00:57:01;17.00;99.90
24250;DHT22;12379;49.820;8.648;2023-08-06T00:59:26;17.10;99.90
24250;DHT22;12379;49.820;8.648;2023-08-06T01:01:52;17.10;99.90
24250;DHT22;12379;49.820;8.648;2023-08-06T01:04:19;17.10;99.90
24250;DHT22;12379;49.820;8.648;2023-08-06T01:06:47;17.00;99.90
24250;DHT22;12379;49.820;8.648;2023-08-06T01:14:33;17.20;99.90
24250;DHT22;12379;49.820;8.648;2023-08-06T01:17:04;17.20;99.90
24250;DHT22;12379;49.820;8.648;2023-08-06T01:19:30;17.20;99.90
24250;DHT22;12379;49.820;8.648;2023-08-06T01:21:56;17.30;99.90
24250;DHT22;12379;49.820;8.648;2023-08-06T01:24:21;17.40;99.90
24250;DHT22;12379;49.820;8.648;2023-08-06T01:27:08;17.30;99.90
24250;DHT22;12379;49.820;8.648;2023-08-06T01:30:01;17.30;99.90
24250;DHT22;12379;49.820;8.648;2023-08-06T01:32:31;17.30;99.90
24250;DHT22;12379;49.820;8.648;2023-08-06T01:34:59;17.50;99.90
24250;DHT22;12379;49.820;8.648;2023-08-06T01:37:25;17.50;99.90
24250;DHT22;12379;49.820;8.648;2023-08-06T01:39:51;17.50;99.90
24250;DHT22;12379;49.820;8.648;2023-08-06T01:42:17;17.50;99.90
24250;DHT22;12379;49.820;8.648;2023-08-06T01:44:42;17.50;99.90
24250;DHT22;12379;49.820;8.648;2023-08-06T01:47:08;17.50;99.90
24250;DHT22;12379;49.820;8.648;2023-08-06T01:49:33;17.50;99.90
24250;DHT22;12379;49.820;8.648;2023-08-06T01:51:59;17.50;99.90
24250;DHT22;12379;49.820;8.648;2023-08-06T01:54:26;17.50;99.90
24250;DHT22;12379;49.820;8.648;2023-08-06T01:56:51;17.50;99.90
24250;DHT22;12379;49.820;8.648;2023-08-06T01:59:17;17.50;99.90
24250;DHT22;12379;49.820;8.648;2023-08-06T02:01:42;17.60;99.90
24250;DHT22;12379;49.820;8.648;2023-08-06T02:04:08;17.60;99.90
24250;DHT22;12379;49.820;8.648;2023-08-06T02:06:33;17.60;99.90
24250;DHT22;12379;49.820;8.648;2023-08-06T02:08:59;17.70;99.90
24250;DHT22;12379;49.820;8.648;2023-08-06T02:11:24;17.70;99.90
24250;DHT22;12379;49.820;8.648;2023-08-06T02:13:50;17.60;99.90
24250;DHT22;12379;49.820;8.648;2023-08-06T02:16:15;17.50;99.90
24250;DHT22;12379;49.820;8.648;2023-08-06T02:18:41;17.50;99.90
24250;DHT22;12379;49.820;8.648;2023-08-06T02:21:06;17.50;99.90
24250;DHT22;12379;49.820;8.648;2023-08-06T02:23:32;17.60;99.90
24250;DHT22;12379;49.820;8.648;2023-08-06T02:25:59;17.60;99.90
24250;DHT22;12379;49.820;8.648;2023-08-06T02:28:25;17.60;99.90
24250;DHT22;12379;49.820;8.648;2023-08-06T02:30:53;17.50;99.90
24250;DHT22;12379;49.820;8.648;2023-08-06T02:33:19;17.60;99.90
24250;DHT22;12379;49.820;8.648;2023-08-06T02:35:44;17.60;99.90
24250;DHT22;12379;49.820;8.648;2023-08-06T02:38:10;17.60;99.90
24250;DHT22;12379;49.820;8.648;2023-08-06T02:40:35;17.60;99.90
24250;DHT22;12379;49.820;8.648;2023-08-06T02:43:01;17.60;99.90
24250;DHT22;12379;49.820;8.648;2023-08-06T02:45:26;17.50;99.90
24250;DHT22;12379;49.820;8.648;2023-08-06T02:47:52;17.50;99.90
24250;DHT22;12379;49.820;8.648;2023-08-06T02:50:18;17.40;99.90
24250;DHT22;12379;49.820;8.648;2023-08-06T02:52:43;17.30;99.90
24250;DHT22;12379;49.820;8.648;2023-08-06T02:55:09;17.30;99.90
24250;DHT22;12379;49.820;8.648;2023-08-06T02:57:34;17.40;99.90
24250;DHT22;12379;49.820;8.648;2023-08-06T03:00:00;17.30;99.90
24250;DHT22;12379;49.820;8.648;2023-08-06T03:02:25;17.20;99.90
24250;DHT22;12379;49.820;8.648;2023-08-06T03:04:51;17.20;99.90
24250;DHT22;12379;49.820;8.648;2023-08-06T03:07:16;17.00;99.90
24250;DHT22;12379;49.820;8.648;2023-08-06T03:09:42;17.10;99.90
24250;DHT22;12379;49.820;8.648;2023-08-06T03:12:07;17.10;99.90
24250;DHT22;12379;49.820;8.648;2023-08-06T03:14:33;17.00;99.90
24250;DHT22;12379;49.820;8.648;2023-08-06T03:16:59;17.00;99.90
24250;DHT22;12379;49.820;8.648;2023-08-06T03:19:24;17.20;99.90
24250;DHT22;12379;49.820;8.648;2023-08-06T03:21:50;17.00;99.90
24250;DHT22;12379;49.820;8.648;2023-08-06T03:24:15;17.00;99.90
24250;DHT22;12379;49.820;8.648;2023-08-06T03:26:41;16.90;99.90
24250;DHT22;12379;49.820;8.648;2023-08-06T03:29:06;17.10;99.90
24250;DHT22;12379;49.820;8.648;2023-08-06T03:31:32;17.10;99.90
24250;DHT22;12379;49.820;8.648;2023-08-06T03:33:57;17.10;99.90
24250;DHT22;12379;49.820;8.648;2023-08-06T03:36:23;17.10;99.90
24250;DHT22;12379;49.820;8.648;2023-08-06T03:38:48;17.10;99.90
24250;DHT22;12379;49.820;8.648;2023-08-06T03:41:14;17.10;99.90
24250;DHT22;12379;49.820;8.648;2023-08-06T03:43:39;17.10;99.90
24250;DHT22;12379;49.820;8.648;2023-08-06T03:46:05;17.00;99.90
24250;DHT22;12379;49.820;8.648;2023-08-06T03:48:30;16.90;99.90
24250;DHT22;12379;49.820;8.648;2023-08-06T03:50:56;17.00;99.90
24250;DHT22;12379;49.820;8.648;2023-08-06T03:53:22;16.90;99.90
24250;DHT22;12379;49.820;8.648;2023-08-06T03:55:47;16.90;99.90
24250;DHT22;12379;49.820;8.648;2023-08-06T03:58:13;16.80;99.90
24250;DHT22;12379;49.820;8.648;2023-08-06T04:00:38;16.90;99.90
24250;DHT22;12379;49.820;8.648;2023-08-06T04:03:04;16.80;99.90
24250;DHT22;12379;49.820;8.648;2023-08-06T04:05:31;16.80;99.90
24250;DHT22;12379;49.820;8.648;2023-08-06T04:07:57;16.90;99.90
24250;DHT22;12379;49.820;8.648;2023-08-06T04:10:23;16.90;99.90
24250;DHT22;12379;49.820;8.648;2023-08-06T04:12:49;16.80;99.90
24250;DHT22;12379;49.820;8.648;2023-08-06T04:15:14;16.80;99.90
24250;DHT22;12379;49.820;8.648;2023-08-06T04:17:40;16.80;99.90
24250;DHT22;12379;49.820;8.648;2023-08-06T04:20:06;16.60;99.90
24250;DHT22;12379;49.820;8.648;2023-08-06T04:22:31;16.50;99.90
24250;DHT22;12379;49.820;8.648;2023-08-06T04:24:57;16.50;99.90
24250;DHT22;12379;49.820;8.648;2023-08-06T04:27:22;16.40;99.90
24250;DHT22;12379;49.820;8.648;2023-08-06T04:29:48;16.40;99.90
24250;DHT22;12379;49.820;8.648;2023-08-06T04:32:14;16.30;99.90
24250;DHT22;12379;49.820;8.648;2023-08-06T04:34:39;16.50;99.90
24250;DHT22;12379;49.820;8.648;2023-08-06T04:37:05;16.50;99.90
24250;DHT22;12379;49.820;8.648;2023-08-06T04:39:30;16.40;99.90
24250;DHT22;12379;49.820;8.648;2023-08-06T04:41:56;16.40;99.90
24250;DHT22;12379;49.820;8.648;2023-08-06T04:44:25;16.30;99.90
24250;DHT22;12379;49.820;8.648;2023-08-06T04:46:50;16.30;99.90
24250;DHT22;12379;49.820;8.648;2023-08-06T04:49:17;16.10;99.90
24250;DHT22;12379;49.820;8.648;2023-08-06T04:51:43;16.10;99.90
24250;DHT22;12379;49.820;8.648;2023-08-06T04:54:09;16.20;99.90
24250;DHT22;12379;49.820;8.648;2023-08-06T04:56:34;16.10;99.90
24250;DHT22;12379;49.820;8.648;2023-08-06T04:59:00;16.10;99.90
24250;DHT22;12379;49.820;8.648;2023-08-06T05:01:26;16.20;99.90
24250;DHT22;12379;49.820;8.648;2023-08-06T05:03:51;16.20;99.90
24250;DHT22;12379;49.820;8.648;2023-08-06T05:06:17;16.20;99.90
24250;DHT22;12379;49.820;8.648;2023-08-06T05:08:42;16.20;99.90
24250;DHT22;12379;49.820;8.648;2023-08-06T05:11:09;16.10;99.90
24250;DHT22;12379;49.820;8.648;2023-08-06T05:13:35;16.00;99.90
24250;DHT22;12379;49.820;8.648;2023-08-06T05:16:01;16.00;99.90
24250;DHT22;12379;49.820;8.648;2023-08-06T05:18:26;16.10;99.90
24250;DHT22;12379;49.820;8.648;2023-08-06T05:20:52;15.90;99.90
24250;DHT22;12379;49.820;8.648;2023-08-06T05:23:17;16.00;99.90
24250;DHT22;12379;49.820;8.648;2023-08-06T05:25:43;15.90;99.90
24250;DHT22;12379;49.820;8.648;2023-08-06T05:28:08;15.90;99.90
24250;DHT22;12379;49.820;8.648;2023-08-06T05:30:34;15.90;99.90
24250;DHT22;12379;49.820;8.648;2023-08-06T05:33:03;15.80;99.90
24250;DHT22;12379;49.820;8.648;2023-08-06T05:35:29;15.80;99.90
24250;DHT22;12379;49.820;8.648;2023-08-06T05:37:54;15.80;99.90
24250;DHT22;12379;49.820;8.648;2023-08-06T05:40:20;15.90;99.90
24250;DHT22;12379;49.820;8.648;2023-08-06T05:42:45;15.90;99.90
24250;DHT22;12379;49.820;8.648;2023-08-06T05:45:11;15.80;99.90
24250;DHT22;12379;49.820;8.648;2023-08-06T05:47:36;15.90;99.90
24250;DHT22;12379;49.820;8.648;2023-08-06T05:50:02;15.90;99.90
24250;DHT22;12379;49.820;8.648;2023-08-06T05:52:28;15.90;99.90
24250;DHT22;12379;49.820;8.648;2023-08-06T05:54:53;16.00;99.90
24250;DHT22;12379;49.820;8.648;2023-08-06T05:57:20;16.00;99.90
24250;DHT22;12379;49.820;8.648;2023-08-06T05:59:45;16.00;99.90
24250;DHT22;12379;49.820;8.648;2023-08-06T06:02:11;16.00;99.90
24250;DHT22;12379;49.820;8.648;2023-08-06T06:04:37;15.90;99.90
24250;DHT22;12379;49.820;8.648;2023-08-06T06:07:03;15.90;99.90
24250;DHT22;12379;49.820;8.648;2023-08-06T06:09:28;16.00;99.90
24250;DHT22;12379;49.820;8.648;2023-08-06T06:11:54;16.00;99.90
24250;DHT22;12379;49.820;8.648;2023-08-06T06:14:19;16.10;99.90
24250;DHT22;12379;49.820;8.648;2023-08-06T06:16:45;16.10;99.90
24250;DHT22;12379;49.820;8.648;2023-08-06T06:19:11;16.10;99.90
24250;DHT22;12379;49.820;8.648;2023-08-06T06:21:38;16.10;99.90
24250;DHT22;12379;49.820;8.648;2023-08-06T06:24:04;16.10;99.90
24250;DHT22;12379;49.820;8.648;2023-08-06T06:26:31;16.10;99.90
24250;DHT22;12379;49.820;8.648;2023-08-06T06:28:57;16.10;99.90
24250;DHT22;12379;49.820;8.648;2023-08-06T06:31:22;16.10;99.90
24250;DHT22;12379;49.820;8.648;2023-08-06T06:33:48;16.10;99.90
24250;DHT22;12379;49.820;8.648;2023-08-06T06:36:14;16.10;99.90
24250;DHT22;12379;49.820;8.648;2023-08-06T06:38:39;15.90;99.90
24250;DHT22;12379;49.820;8.648;2023-08-06T06:41:05;15.90;99.90
24250;DHT22;12379;49.820;8.648;2023-08-06T06:43:30;15.90;99.90
24250;DHT22;12379;49.820;8.648;2023-08-06T06:45:57;16.00;99.90
24250;DHT22;12379;49.820;8.648;2023-08-06T06:48:27;16.00;99.90
24250;DHT22;12379;49.820;8.648;2023-08-06T06:50:53;16.10;99.90
24250;DHT22;12379;49.820;8.648;2023-08-06T06:53:18;16.00;99.90
24250;DHT22;12379;49.820;8.648;2023-08-06T06:55:44;16.00;99.90
24250;DHT22;12379;49.820;8.648;2023-08-06T06:58:09;16.10;99.90
24250;DHT22;12379;49.820;8.648;2023-08-06T07:00:36;16.20;99.90
24250;DHT22;12379;49.820;8.648;2023-08-06T07:03:02;16.20;99.90
24250;DHT22;12379;49.820;8.648;2023-08-06T07:05:28;16.20;99.90
24250;DHT22;12379;49.820;8.648;2023-08-06T07:07:53;16.20;99.90
24250;DHT22;12379;49.820;8.648;2023-08-06T07:10:19;16.20;99.90
24250;DHT22;12379;49.820;8.648;2023-08-06T07:12:44;16.40;99.90
24250;DHT22;12379;49.820;8.648;2023-08-06T07:15:10;16.50;99.90
24250;DHT22;12379;49.820;8.648;2023-08-06T07:17:36;16.40;99.90
24250;DHT22;12379;49.820;8.648;2023-08-06T07:20:02;16.50;99.90
24250;DHT22;12379;49.820;8.648;2023-08-06T07:22:28;16.50;99.90
24250;DHT22;12379;49.820;8.648;2023-08-06T07:24:53;16.40;99.90
24250;DHT22;12379;49.820;8.648;2023-08-06T07:27:19;16.30;99.90
24250;DHT22;12379;49.820;8.648;2023-08-06T07:29:44;16.20;99.90
24250;DHT22;12379;49.820;8.648;2023-08-06T07:32:10;16.10;99.90
24250;DHT22;12379;49.820;8.648;2023-08-06T07:34:35;16.00;99.90
24250;DHT22;12379;49.820;8.648;2023-08-06T07:37:01;16.00;99.90
24250;DHT22;12379;49.820;8.648;2023-08-06T07:39:26;16.10;99.90
24250;DHT22;12379;49.820;8.648;2023-08-06T07:41:54;16.10;99.90
24250;DHT22;12379;49.820;8.648;2023-08-06T07:44:19;16.10;99.90
24250;DHT22;12379;49.820;8.648;2023-08-06T07:46:45;16.00;99.90
24250;DHT22;12379;49.820;8.648;2023-08-06T07:49:10;15.90;99.90
24250;DHT22;12379;49.820;8.648;2023-08-06T07:51:38;15.90;99.90
24250;DHT22;12379;49.820;8.648;2023-08-06T07:54:05;15.90;99.90
24250;DHT22;12379;49.820;8.648;2023-08-06T07:56:31;15.90;99.90
24250;DHT22;12379;49.820;8.648;2023-08-06T07:58:56;16.00;99.90
24250;DHT22;12379;49.820;8.648;2023-08-06T08:01:22;16.00;99.90
24250;DHT22;12379;49.820;8.648;2023-08-06T08:03:47;16.00;99.90
24250;DHT22;12379;49.820;8.648;2023-08-06T08:06:13;16.20;99.90
24250;DHT22;12379;49.820;8.648;2023-08-06T08:08:38;16.20;99.90
24250;DHT22;12379;49.820;8.648;2023-08-06T08:11:05;16.40;99.90
24250;DHT22;12379;49.820;8.648;2023-08-06T08:13:31;16.40;99.90
24250;DHT22;12379;49.820;8.648;2023-08-06T08:15:58;16.50;99.90
24250;DHT22;12379;49.820;8.648;2023-08-06T08:18:24;16.40;99.90
24250;DHT22;12379;49.820;8.648;2023-08-06T08:20:49;16.50;99.90
24250;DHT22;12379;49.820;8.648;2023-08-06T08:23:15;16.50;99.90
24250;DHT22;12379;49.820;8.648;2023-08-06T08:25:40;16.50;99.90
24250;DHT22;12379;49.820;8.648;2023-08-06T08:28:06;16.60;99.90
24250;DHT22;12379;49.820;8.648;2023-08-06T08:30:32;16.60;99.90
24250;DHT22;12379;49.820;8.648;2023-08-06T08:32:58;16.70;99.90
24250;DHT22;12379;49.820;8.648;2023-08-06T08:35:23;17.00;99.90
24250;DHT22;12379;49.820;8.648;2023-08-06T08:37:49;17.40;99.90
24250;DHT22;12379;49.820;8.648;2023-08-06T08:40:15;17.50;99.90
24250;DHT22;12379;49.820;8.648;2023-08-06T08:42:42;17.80;99.90
24250;DHT22;12379;49.820;8.648;2023-08-06T08:45:14;17.80;99.90
24250;DHT22;12379;49.820;8.648;2023-08-06T08:47:43;17.70;99.90
24250;DHT22;12379;49.820;8.648;2023-08-06T08:50:10;17.70;99.90
24250;DHT22;12379;49.820;8.648;2023-08-06T08:52:40;17.80;99.90
24250;DHT22;12379;49.820;8.648;2023-08-06T08:55:07;17.80;99.90
24250;DHT22;12379;49.820;8.648;2023-08-06T08:57:33;18.00;99.90
24250;DHT22;12379;49.820;8.648;2023-08-06T08:59:58;18.20;99.90
24250;DHT22;12379;49.820;8.648;2023-08-06T09:02:25;18.60;99.90
24250;DHT22;12379;49.820;8.648;2023-08-06T09:04:53;19.30;99.90
24250;DHT22;12379;49.820;8.648;2023-08-06T09:07:19;19.70;99.90
24250;DHT22;12379;49.820;8.648;2023-08-06T09:09:49;20.10;99.90
24250;DHT22;12379;49.820;8.648;2023-08-06T09:12:16;20.60;99.90
24250;DHT22;12379;49.820;8.648;2023-08-06T09:14:42;20.60;99.90
24250;DHT22;12379;49.820;8.648;2023-08-06T09:17:08;20.10;99.90
24250;DHT22;12379;49.820;8.648;2023-08-06T09:19:36;19.70;99.90
24250;DHT22;12379;49.820;8.648;2023-08-06T09:22:02;19.30;99.90
24250;DHT22;12379;49.820;8.648;2023-08-06T09:24:28;19.00;99.90
24250;DHT22;12379;49.820;8.648;2023-08-06T09:26:53;18.70;99.90
24250;DHT22;12379;49.820;8.648;2023-08-06T09:29:20;18.70;99.90
24250;DHT22;12379;49.820;8.648;2023-08-06T09:31:50;19.00;99.90
24250;DHT22;12379;49.820;8.648;2023-08-06T09:34:20;19.00;99.90
24250;DHT22;12379;49.820;8.648;2023-08-06T09:36:51;19.10;99.90
24250;DHT22;12379;49.820;8.648;2023-08-06T09:39:18;18.90;99.90
24250;DHT22;12379;49.820;8.648;2023-08-06T09:41:45;18.70;99.90
24250;DHT22;12379;49.820;8.648;2023-08-06T09:44:27;18.60;99.90
24250;DHT22;12379;49.820;8.648;2023-08-06T09:46:58;18.50;99.90
24250;DHT22;12379;49.820;8.648;2023-08-06T09:51:57;18.60;99.90
24250;DHT22;12379;49.820;8.648;2023-08-06T09:54:28;19.90;99.90
24250;DHT22;12379;49.820;8.648;2023-08-06T09:56:56;20.60;99.90
24250;DHT22;12379;49.820;8.648;2023-08-06T09:59:23;20.70;99.90
24250;DHT22;12379;49.820;8.648;2023-08-06T10:01:49;20.80;99.90
24250;DHT22;12379;49.820;8.648;2023-08-06T10:04:15;20.70;99.90
24250;DHT22;12379;49.820;8.648;2023-08-06T10:06:47;20.60;99.90
24250;DHT22;12379;49.820;8.648;2023-08-06T10:09:15;20.40;99.90
24250;DHT22;12379;49.820;8.648;2023-08-06T10:11:42;20.10;99.90
24250;DHT22;12379;49.820;8.648;2023-08-06T10:14:23;19.90;99.90
24250;DHT22;12379;49.820;8.648;2023-08-06T10:16:50;19.40;99.90
24250;DHT22;12379;49.820;8.648;2023-08-06T10:19:17;19.00;99.90
24250;DHT22;12379;49.820;8.648;2023-08-06T10:24:58;18.10;99.90
24250;DHT22;12379;49.820;8.648;2023-08-06T10:30:31;18.00;99.90
24250;DHT22;12379;49.820;8.648;2023-08-06T10:33:03;18.00;99.90
24250;DHT22;12379;49.820;8.648;2023-08-06T10:38:04;18.50;99.90
24250;DHT22;12379;49.820;8.648;2023-08-06T10:40:31;18.60;99.90
24250;DHT22;12379;49.820;8.648;2023-08-06T10:43:01;18.30;99.90
24250;DHT22;12379;49.820;8.648;2023-08-06T10:45:27;18.10;99.90
24250;DHT22;12379;49.820;8.648;2023-08-06T10:47:54;18.10;99.90
24250;DHT22;12379;49.820;8.648;2023-08-06T10:50:20;18.20;99.90
24250;DHT22;12379;49.820;8.648;2023-08-06T10:52:47;18.10;99.90
24250;DHT22;12379;49.820;8.648;2023-08-06T10:55:13;18.20;99.90
24250;DHT22;12379;49.820;8.648;2023-08-06T10:57:39;18.30;99.90
24250;DHT22;12379;49.820;8.648;2023-08-06T11:00:06;18.30;99.90
24250;DHT22;12379;49.820;8.648;2023-08-06T11:02:34;18.30;99.90
24250;DHT22;12379;49.820;8.648;2023-08-06T11:05:08;18.40;99.90
24250;DHT22;12379;49.820;8.648;2023-08-06T11:07:34;18.30;99.90
24250;DHT22;12379;49.820;8.648;2023-08-06T11:10:05;18.30;99.90
24250;DHT22;12379;49.820;8.648;2023-08-06T11:12:34;18.30;99.90
24250;DHT22;12379;49.820;8.648;2023-08-06T11:15:00;18.40;99.90
24250;DHT22;12379;49.820;8.648;2023-08-06T11:17:32;18.50;99.90
24250;DHT22;12379;49.820;8.648;2023-08-06T11:20:02;18.50;99.90
24250;DHT22;12379;49.820;8.648;2023-08-06T11:22:29;18.50;99.90
24250;DHT22;12379;49.820;8.648;2023-08-06T11:24:55;18.50;99.90
24250;DHT22;12379;49.820;8.648;2023-08-06T11:27:21;18.50;99.90
24250;DHT22;12379;49.820;8.648;2023-08-06T11:29:46;18.40;99.90
24250;DHT22;12379;49.820;8.648;2023-08-06T11:32:12;18.50;99.90
24250;DHT22;12379;49.820;8.648;2023-08-06T11:34:39;18.80;99.90
24250;DHT22;12379;49.820;8.648;2023-08-06T11:37:06;18.70;99.90
24250;DHT22;12379;49.820;8.648;2023-08-06T11:39:37;18.70;99.90
24250;DHT22;12379;49.820;8.648;2023-08-06T11:42:04;18.30;99.90
24250;DHT22;12379;49.820;8.648;2023-08-06T11:44:35;17.90;99.90
24250;DHT22;12379;49.820;8.648;2023-08-06T11:47:04;17.80;99.90
24250;DHT22;12379;49.820;8.648;2023-08-06T11:49:45;17.60;99.90
24250;DHT22;12379;49.820;8.648;2023-08-06T11:52:14;17.50;99.90
24250;DHT22;12379;49.820;8.648;2023-08-06T11:54:41;17.50;99.90
24250;DHT22;12379;49.820;8.648;2023-08-06T11:57:07;17.30;99.90
24250;DHT22;12379;49.820;8.648;2023-08-06T11:59:33;17.10;99.90
24250;DHT22;12379;49.820;8.648;2023-08-06T12:02:03;17.00;99.90
24250;DHT22;12379;49.820;8.648;2023-08-06T12:04:31;16.80;99.90
24250;DHT22;12379;49.820;8.648;2023-08-06T12:07:05;16.80;99.90
24250;DHT22;12379;49.820;8.648;2023-08-06T12:09:31;16.90;99.90
24250;DHT22;12379;49.820;8.648;2023-08-06T12:11:56;16.90;99.90
24250;DHT22;12379;49.820;8.648;2023-08-06T12:14:25;16.90;99.90
24250;DHT22;12379;49.820;8.648;2023-08-06T12:16:50;16.80;99.90
24250;DHT22;12379;49.820;8.648;2023-08-06T12:19:16;16.90;99.90
24250;DHT22;12379;49.820;8.648;2023-08-06T12:21:41;16.90;99.90
24250;DHT22;12379;49.820;8.648;2023-08-06T12:24:07;16.80;99.90
24250;DHT22;12379;49.820;8.648;2023-08-06T12:26:33;16.80;99.90
24250;DHT22;12379;49.820;8.648;2023-08-06T12:28:58;16.90;99.90
24250;DHT22;12379;49.820;8.648;2023-08-06T12:31:24;16.80;99.90
24250;DHT22;12379;49.820;8.648;2023-08-06T12:33:49;16.90;99.90
24250;DHT22;12379;49.820;8.648;2023-08-06T12:36:15;16.80;99.90
24250;DHT22;12379;49.820;8.648;2023-08-06T12:38:40;16.80;99.90
24250;DHT22;12379;49.820;8.648;2023-08-06T12:41:06;16.80;99.90
24250;DHT22;12379;49.820;8.648;2023-08-06T12:43:31;16.80;99.90
24250;DHT22;12379;49.820;8.648;2023-08-06T12:45:57;16.90;99.90
24250;DHT22;12379;49.820;8.648;2023-08-06T12:48:22;16.80;99.90
24250;DHT22;12379;49.820;8.648;2023-08-06T12:50:48;16.80;99.90
24250;DHT22;12379;49.820;8.648;2023-08-06T12:53:14;16.80;99.90
24250;DHT22;12379;49.820;8.648;2023-08-06T12:55:41;16.80;99.90
24250;DHT22;12379;49.820;8.648;2023-08-06T12:58:08;16.80;99.90
24250;DHT22;12379;49.820;8.648;2023-08-06T13:00:33;16.80;99.90
24250;DHT22;12379;49.820;8.648;2023-08-06T13:02:59;16.90;99.90
24250;DHT22;12379;49.820;8.648;2023-08-06T13:05:25;16.90;99.90
24250;DHT22;12379;49.820;8.648;2023-08-06T13:07:50;16.90;99.90
24250;DHT22;12379;49.820;8.648;2023-08-06T13:10:16;16.90;99.90
24250;DHT22;12379;49.820;8.648;2023-08-06T13:12:43;16.80;99.90
24250;DHT22;12379;49.820;8.648;2023-08-06T13:15:09;16.90;99.90
24250;DHT22;12379;49.820;8.648;2023-08-06T13:17:35;16.90;99.90
24250;DHT22;12379;49.820;8.648;2023-08-06T13:20:00;16.90;99.90
24250;DHT22;12379;49.820;8.648;2023-08-06T13:22:26;16.90;99.90
24250;DHT22;12379;49.820;8.648;2023-08-06T13:24:51;16.90;99.90
24250;DHT22;12379;49.820;8.648;2023-08-06T13:27:17;17.00;99.90
24250;DHT22;12379;49.820;8.648;2023-08-06T13:29:42;17.00;99.90
24250;DHT22;12379;49.820;8.648;2023-08-06T13:32:08;17.00;99.90
24250;DHT22;12379;49.820;8.648;2023-08-06T13:34:34;17.00;99.90
24250;DHT22;12379;49.820;8.648;2023-08-06T13:36:59;17.00;99.90
24250;DHT22;12379;49.820;8.648;2023-08-06T13:39:25;16.90;99.90
24250;DHT22;12379;49.820;8.648;2023-08-06T13:41:50;16.90;99.90
24250;DHT22;12379;49.820;8.648;2023-08-06T13:44:16;16.90;99.90
24250;DHT22;12379;49.820;8.648;2023-08-06T13:46:42;16.90;99.90
24250;DHT22;12379;49.820;8.648;2023-08-06T13:49:08;16.90;99.90
24250;DHT22;12379;49.820;8.648;2023-08-06T13:51:33;16.80;99.90
24250;DHT22;12379;49.820;8.648;2023-08-06T13:54:01;16.80;99.90
24250;DHT22;12379;49.820;8.648;2023-08-06T13:56:26;16.80;99.90
24250;DHT22;12379;49.820;8.648;2023-08-06T13:58:52;16.80;99.90
24250;DHT22;12379;49.820;8.648;2023-08-06T14:01:17;16.90;99.90
24250;DHT22;12379;49.820;8.648;2023-08-06T14:03:46;16.90;99.90
24250;DHT22;12379;49.820;8.648;2023-08-06T14:06:11;16.90;99.90
24250;DHT22;12379;49.820;8.648;2023-08-06T14:08:37;17.00;99.90
24250;DHT22;12379;49.820;8.648;2023-08-06T14:11:03;17.00;99.90
24250;DHT22;12379;49.820;8.648;2023-08-06T14:13:28;17.00;99.90
24250;DHT22;12379;49.820;8.648;2023-08-06T14:15:54;17.00;99.90
24250;DHT22;12379;49.820;8.648;2023-08-06T14:18:19;16.90;99.90
24250;DHT22;12379;49.820;8.648;2023-08-06T14:20:45;16.90;99.90
24250;DHT22;12379;49.820;8.648;2023-08-06T14:23:11;16.90;99.90
24250;DHT22;12379;49.820;8.648;2023-08-06T14:25:38;16.90;99.90
24250;DHT22;12379;49.820;8.648;2023-08-06T14:28:04;16.90;99.90
24250;DHT22;12379;49.820;8.648;2023-08-06T14:30:31;16.90;99.90
24250;DHT22;12379;49.820;8.648;2023-08-06T14:32:57;16.90;99.90
24250;DHT22;12379;49.820;8.648;2023-08-06T14:35:24;16.90;99.90
24250;DHT22;12379;49.820;8.648;2023-08-06T14:37:49;16.90;99.90
24250;DHT22;12379;49.820;8.648;2023-08-06T14:40:15;16.90;99.90
24250;DHT22;12379;49.820;8.648;2023-08-06T14:42:41;16.90;99.90
24250;DHT22;12379;49.820;8.648;2023-08-06T14:45:06;16.90;99.90
24250;DHT22;12379;49.820;8.648;2023-08-06T14:47:32;16.90;99.90
24250;DHT22;12379;49.820;8.648;2023-08-06T14:49:57;16.80;99.90
24250;DHT22;12379;49.820;8.648;2023-08-06T14:52:23;16.70;99.90
24250;DHT22;12379;49.820;8.648;2023-08-06T14:54:48;16.70;99.90
24250;DHT22;12379;49.820;8.648;2023-08-06T14:57:17;16.80;99.90
24250;DHT22;12379;49.820;8.648;2023-08-06T14:59:43;16.80;99.90
24250;DHT22;12379;49.820;8.648;2023-08-06T15:02:08;16.80;99.90
24250;DHT22;12379;49.820;8.648;2023-08-06T15:04:34;16.70;99.90
24250;DHT22;12379;49.820;8.648;2023-08-06T15:06:59;16.60;99.90
24250;DHT22;12379;49.820;8.648;2023-08-06T15:09:25;16.50;99.90
24250;DHT22;12379;49.820;8.648;2023-08-06T15:11:50;16.50;99.90
24250;DHT22;12379;49.820;8.648;2023-08-06T15:14:16;16.50;99.90
24250;DHT22;12379;49.820;8.648;2023-08-06T15:16:42;16.50;99.90
24250;DHT22;12379;49.820;8.648;2023-08-06T15:19:07;16.50;99.90
24250;DHT22;12379;49.820;8.648;2023-08-06T15:21:33;16.50;99.90
24250;DHT22;12379;49.820;8.648;2023-08-06T15:23:59;16.50;99.90
24250;DHT22;12379;49.820;8.648;2023-08-06T15:26:24;16.50;99.90
24250;DHT22;12379;49.820;8.648;2023-08-06T15:28:50;16.50;99.90
24250;DHT22;12379;49.820;8.648;2023-08-06T15:31:20;16.50;99.90
24250;DHT22;12379;49.820;8.648;2023-08-06T15:33:46;16.50;99.90
24250;DHT22;12379;49.820;8.648;2023-08-06T15:36:11;16.50;99.90
24250;DHT22;12379;49.820;8.648;2023-08-06T15:38:37;16.60;99.90
24250;DHT22;12379;49.820;8.648;2023-08-06T15:41:02;16.60;99.90
24250;DHT22;12379;49.820;8.648;2023-08-06T15:43:28;16.60;99.90